Time;durP1;ratioP1;P1;durP2;ratioP2;P2;SDS_P1;SDS_P2;PMS_P1;PMS_P2;Temp;Humidity;BMP_temperature;BMP_pressure;BME280_temperature;BME280_humidity;BME280_pressure;Samples;Min_cycle;Max_cycle;Signal;HPM_P1;HPM_P2
2021/10/27 00:01:43;;;;;;;8.70;7.25;;;;;;;;;;4900224;29;20563;-64
2021/10/27 00:04:10;;;;;;;9.65;7.45;;;;;;;;;;4900430;29;20059;-64
2021/10/27 00:06:37;;;;;;;10.10;7.63;;;;;;;;;;4909221;29;20500;-64
2021/10/27 00:09:04;;;;;;;13.43;7.63;;;;;;;;;;4910128;29;20108;-63
2021/10/27 00:11:31;;;;;;;16.38;7.93;;;;;;;;;;4908785;29;20072;-64
2021/10/27 00:13:58;;;;;;;11.18;8.55;;;;;;;;;;4908958;29;20049;-63
2021/10/27 00:16:26;;;;;;;9.88;6.97;;;;;;;;;;4910593;29;20492;-64
2021/10/27 00:18:53;;;;;;;8.73;7.00;;;;;;;;;;4894392;29;20056;-64
2021/10/27 00:21:19;;;;;;;10.05;7.93;;;;;;;;;;4903414;29;20112;-64
2021/10/27 00:23:46;;;;;;;7.93;6.95;;;;;;;;;;4900314;29;20060;-64
2021/10/27 00:26:12;;;;;;;8.45;6.50;;;;;;;;;;4899993;29;20103;-64
2021/10/27 00:28:39;;;;;;;9.07;7.18;;;;;;;;;;4899850;29;20108;-64
2021/10/27 00:31:06;;;;;;;8.73;7.10;;;;;;;;;;4899850;29;20063;-64
2021/10/27 00:33:33;;;;;;;9.85;7.70;;;;;;;;;;4899516;29;20060;-64
2021/10/27 00:35:59;;;;;;;8.90;7.65;;;;;;;;;;4899858;29;20104;-64
2021/10/27 00:38:26;;;;;;;11.25;7.57;;;;;;;;;;4899729;29;20104;-64
2021/10/27 00:40:53;;;;;;;10.32;8.18;;;;;;;;;;4899305;29;20048;-64
2021/10/27 00:43:20;;;;;;;11.25;7.80;;;;;;;;;;4899477;29;20060;-64
2021/10/27 00:45:46;;;;;;;15.18;7.93;;;;;;;;;;4899875;29;20053;-64
2021/10/27 00:48:13;;;;;;;11.18;8.15;;;;;;;;;;4899528;29;20503;-64
2021/10/27 00:50:40;;;;;;;22.75;7.85;;;;;;;;;;4899426;29;20116;-65
2021/10/27 00:53:06;;;;;;;13.98;8.40;;;;;;;;;;4899461;29;20056;-65
2021/10/27 00:55:33;;;;;;;10.00;7.22;;;;;;;;;;4899249;29;20060;-64
2021/10/27 00:58:00;;;;;;;7.68;6.88;;;;;;;;;;4882850;29;20056;-64
2021/10/27 01:00:26;;;;;;;9.25;7.15;;;;;;;;;;4899178;29;20566;-64
2021/10/27 01:02:54;;;;;;;14.27;7.32;;;;;;;;;;4899102;29;20052;-65
2021/10/27 01:05:21;;;;;;;13.45;6.78;;;;;;;;;;4882626;29;20108;-64
2021/10/27 01:07:47;;;;;;;8.00;6.32;;;;;;;;;;4899370;29;20053;-64
2021/10/27 01:10:14;;;;;;;8.02;6.32;;;;;;;;;;4899074;29;20108;-64
2021/10/27 01:12:41;;;;;;;9.05;6.10;;;;;;;;;;4898903;29;20056;-64
2021/10/27 01:15:08;;;;;;;7.07;5.88;;;;;;;;;;4899422;29;20056;-64
2021/10/27 01:17:35;;;;;;;6.45;5.22;;;;;;;;;;4898940;29;20056;-64
2021/10/27 01:20:02;;;;;;;6.88;5.65;;;;;;;;;;4898962;29;20052;-64
2021/10/27 01:22:34;;;;;;;6.22;5.63;;;;;;;;;;4898691;29;20056;-64
2021/10/27 01:25:02;;;;;;;6.85;5.50;;;;;;;;;;4898935;29;20548;-64
2021/10/27 01:27:29;;;;;;;6.57;5.90;;;;;;;;;;4898935;29;20049;-64
2021/10/27 01:29:55;;;;;;;6.65;5.82;;;;;;;;;;4898797;29;20056;-64
2021/10/27 01:32:32;;;;;;;6.47;5.88;;;;;;;;;;4898937;29;20052;-64
2021/10/27 01:34:59;;;;;;;6.25;5.65;;;;;;;;;;4898667;29;20052;-64
2021/10/27 01:37:26;;;;;;;6.43;5.82;;;;;;;;;;4898751;29;20112;-64
2021/10/27 01:39:54;;;;;;;5.82;5.22;;;;;;;;;;4898710;29;20059;-64
2021/10/27 01:42:22;;;;;;;6.38;5.55;;;;;;;;;;4898468;29;20056;-64
2021/10/27 01:44:49;;;;;;;6.00;5.40;;;;;;;;;;4898580;29;20139;-64
2021/10/27 01:47:16;;;;;;;7.80;5.50;;;;;;;;;;4898626;29;20108;-65
2021/10/27 01:49:43;;;;;;;6.53;5.72;;;;;;;;;;4898381;29;20084;-64
2021/10/27 01:52:10;;;;;;;6.07;5.47;;;;;;;;;;4898286;29;20056;-64
2021/10/27 01:54:39;;;;;;;6.72;6.03;;;;;;;;;;4898386;29;20104;-64
2021/10/27 01:57:07;;;;;;;6.70;5.95;;;;;;;;;;4898382;29;20563;-64
2021/10/27 01:59:34;;;;;;;6.15;5.47;;;;;;;;;;4898189;29;20057;-65
2021/10/27 02:02:01;;;;;;;8.38;6.18;;;;;;;;;;4898169;29;20054;-65
2021/10/27 02:04:28;;;;;;;6.05;5.38;;;;;;;;;;4898199;29;20053;-64
2021/10/27 02:06:54;;;;;;;7.22;6.25;;;;;;;;;;4898551;29;20060;-64
2021/10/27 02:09:37;;;;;;;6.13;5.53;;;;;;;;;;4866692;29;20052;-64
2021/10/27 02:12:05;;;;;;;6.38;5.32;;;;;;;;;;4898241;29;20048;-64
2021/10/27 02:14:32;;;;;;;6.65;5.95;;;;;;;;;;4897728;29;20053;-65
2021/10/27 02:16:58;;;;;;;6.70;6.00;;;;;;;;;;4897698;29;20053;-65
2021/10/27 02:19:25;;;;;;;6.68;5.97;;;;;;;;;;4897718;29;20100;-65
2021/10/27 02:21:52;;;;;;;7.43;6.65;;;;;;;;;;4897984;29;20130;-65
2021/10/27 02:24:18;;;;;;;6.82;6.13;;;;;;;;;;4897756;29;20488;-65
2021/10/27 02:26:46;;;;;;;6.85;6.15;;;;;;;;;;4897864;29;20064;-65
2021/10/27 02:29:13;;;;;;;6.95;5.38;;;;;;;;;;4881176;29;20576;-65
2021/10/27 02:31:41;;;;;;;5.55;4.97;;;;;;;;;;4897434;29;20060;-64
2021/10/27 02:34:07;;;;;;;5.90;5.30;;;;;;;;;;4897885;29;20423;-65
2021/10/27 02:36:34;;;;;;;6.25;5.65;;;;;;;;;;4897408;29;20104;-64
2021/10/27 02:39:01;;;;;;;6.50;5.32;;;;;;;;;;4897476;29;20472;-64
2021/10/27 02:41:28;;;;;;;5.93;5.35;;;;;;;;;;4897461;29;20059;-65
2021/10/27 02:43:54;;;;;;;7.10;5.65;;;;;;;;;;4897544;29;20124;-65
2021/10/27 02:46:21;;;;;;;6.85;6.25;;;;;;;;;;4897437;29;20460;-65
2021/10/27 02:48:47;;;;;;;6.90;6.07;;;;;;;;;;4897353;29;20135;-65
2021/10/27 02:51:14;;;;;;;7.78;6.38;;;;;;;;;;4897267;29;20048;-64
2021/10/27 02:53:41;;;;;;;9.10;6.53;;;;;;;;;;4897268;29;20084;-64
2021/10/27 02:56:07;;;;;;;7.72;6.50;;;;;;;;;;4880880;29;20056;-65
2021/10/27 02:58:34;;;;;;;5.90;5.30;;;;;;;;;;4897406;29;20060;-65
2021/10/27 03:01:01;;;;;;;5.72;5.20;;;;;;;;;;4897134;29;20053;-65
2021/10/27 03:03:28;;;;;;;6.18;4.97;;;;;;;;;;4896804;29;20088;-65
2021/10/27 03:05:55;;;;;;;7.78;5.50;;;;;;;;;;4897301;29;20075;-65
2021/10/27 03:08:21;;;;;;;5.78;5.18;;;;;;;;;;4897105;29;20052;-65
2021/10/27 03:10:48;;;;;;;7.22;6.03;;;;;;;;;;4896887;29;20049;-65
2021/10/27 03:13:15;;;;;;;6.57;5.97;;;;;;;;;;4896848;29;20398;-65
2021/10/27 03:15:41;;;;;;;6.68;5.40;;;;;;;;;;4897011;29;20113;-64
2021/10/27 03:18:08;;;;;;;8.93;5.20;;;;;;;;;;4897077;29;20052;-65
2021/10/27 03:20:35;;;;;;;5.57;5.05;;;;;;;;;;4896768;29;20048;-64
2021/10/27 03:23:02;;;;;;;6.00;5.28;;;;;;;;;;4896590;29;20049;-64
2021/10/27 03:25:28;;;;;;;5.55;4.78;;;;;;;;;;4896801;29;20473;-64
2021/10/27 03:27:55;;;;;;;6.05;5.20;;;;;;;;;;4896404;29;20052;-65
2021/10/27 03:30:22;;;;;;;6.20;5.60;;;;;;;;;;4896508;29;20116;-64
2021/10/27 03:32:49;;;;;;;8.05;5.90;;;;;;;;;;4896571;29;20056;-64
2021/10/27 03:35:16;;;;;;;8.85;6.10;;;;;;;;;;4896726;29;20052;-65
2021/10/27 03:37:42;;;;;;;6.60;5.90;;;;;;;;;;4896728;29;20131;-64
2021/10/27 03:40:10;;;;;;;6.68;5.85;;;;;;;;;;4896803;29;20056;-64
2021/10/27 03:42:36;;;;;;;8.07;6.40;;;;;;;;;;4896568;29;20112;-64
2021/10/27 03:45:03;;;;;;;8.20;6.30;;;;;;;;;;4896753;29;20052;-65
2021/10/27 03:47:30;;;;;;;8.52;6.10;;;;;;;;;;4880091;29;20421;-65
2021/10/27 03:49:57;;;;;;;7.05;6.10;;;;;;;;;;4896505;29;20056;-64
2021/10/27 03:52:24;;;;;;;9.00;6.30;;;;;;;;;;4896064;29;20052;-65
2021/10/27 03:54:51;;;;;;;10.00;6.07;;;;;;;;;;4896538;29;20496;-65
2021/10/27 03:57:17;;;;;;;14.77;7.50;;;;;;;;;;4896641;29;20060;-65
2021/10/27 03:59:45;;;;;;;16.52;8.30;;;;;;;;;;4896470;29;20060;-65
2021/10/27 04:02:11;;;;;;;24.67;8.40;;;;;;;;;;4896369;29;20049;-65
2021/10/27 04:04:38;;;;;;;13.93;7.55;;;;;;;;;;4896174;29;20060;-65
2021/10/27 04:07:05;;;;;;;10.63;6.40;;;;;;;;;;4896619;29;20053;-65
2021/10/27 04:09:32;;;;;;;8.07;6.30;;;;;;;;;;4896674;29;20053;-64
2021/10/27 04:11:58;;;;;;;6.25;5.65;;;;;;;;;;4896042;29;20092;-65
2021/10/27 04:14:25;;;;;;;10.23;6.18;;;;;;;;;;4896212;29;20568;-65
2021/10/27 04:16:51;;;;;;;6.90;5.78;;;;;;;;;;4896334;29;20053;-65
2021/10/27 04:19:18;;;;;;;9.93;6.57;;;;;;;;;;4896457;29;20135;-64
2021/10/27 04:21:45;;;;;;;7.65;6.20;;;;;;;;;;4896086;29;20108;-64
2021/10/27 04:24:11;;;;;;;10.95;6.35;;;;;;;;;;4896518;29;20512;-65
2021/10/27 04:26:38;;;;;;;7.22;6.13;;;;;;;;;;4896382;29;20053;-65
2021/10/27 04:29:05;;;;;;;9.50;5.88;;;;;;;;;;4896450;29;20552;-65
2021/10/27 04:31:31;;;;;;;5.90;5.30;;;;;;;;;;4896220;29;20056;-65
2021/10/27 04:33:58;;;;;;;7.72;5.55;;;;;;;;;;4896411;29;20088;-64
2021/10/27 04:36:25;;;;;;;5.93;5.15;;;;;;;;;;4896472;29;20580;-66
2021/10/27 04:38:52;;;;;;;8.02;5.95;;;;;;;;;;4896231;29;20052;-66
2021/10/27 04:41:18;;;;;;;9.48;5.85;;;;;;;;;;4899262;29;20473;-66
2021/10/27 04:43:45;;;;;;;6.35;5.45;;;;;;;;;;4899437;29;20052;-66
2021/10/27 04:46:11;;;;;;;8.30;5.53;;;;;;;;;;4899736;29;20116;-66
2021/10/27 04:48:38;;;;;;;9.70;5.43;;;;;;;;;;4899327;29;20127;-65
2021/10/27 04:51:05;;;;;;;6.85;5.88;;;;;;;;;;4899790;29;20053;-65
2021/10/27 04:53:32;;;;;;;7.13;5.57;;;;;;;;;;4899425;29;20501;-65
2021/10/27 04:55:59;;;;;;;6.97;5.90;;;;;;;;;;4899614;29;20052;-65
2021/10/27 04:58:27;;;;;;;7.10;5.75;;;;;;;;;;4899627;29;20056;-65
2021/10/27 05:00:54;;;;;;;7.40;5.90;;;;;;;;;;4899496;29;20056;-66
2021/10/27 05:03:21;;;;;;;10.35;7.05;;;;;;;;;;4899269;29;20653;-66
2021/10/27 05:05:49;;;;;;;13.50;8.30;;;;;;;;;;4899401;29;20088;-66
2021/10/27 05:08:18;;;;;;;19.08;8.65;;;;;;;;;;4899304;29;20054;-66
2021/10/27 05:10:45;;;;;;;12.27;8.68;;;;;;;;;;4899330;29;20060;-66
2021/10/27 05:13:13;;;;;;;16.67;9.23;;;;;;;;;;4898912;29;20052;-66
2021/10/27 05:15:41;;;;;;;13.43;9.07;;;;;;;;;;4899313;29;20057;-66
2021/10/27 05:18:08;;;;;;;14.23;8.85;;;;;;;;;;4899099;29;20052;-66
2021/10/27 05:20:34;;;;;;;12.90;7.55;;;;;;;;;;4899136;29;20097;-66
2021/10/27 05:23:01;;;;;;;10.68;7.15;;;;;;;;;;4899012;29;20052;-66
2021/10/27 05:25:28;;;;;;;11.38;6.45;;;;;;;;;;4899089;29;20060;-65
2021/10/27 05:27:54;;;;;;;11.38;7.43;;;;;;;;;;4899308;29;20057;-66
2021/10/27 05:30:21;;;;;;;7.70;6.82;;;;;;;;;;4898978;29;20056;-65
2021/10/27 05:32:47;;;;;;;10.35;6.93;;;;;;;;;;4898731;29;20052;-66
2021/10/27 05:35:14;;;;;;;10.82;7.95;;;;;;;;;;4899038;29;20472;-66
2021/10/27 05:37:42;;;;;;;13.20;6.78;;;;;;;;;;4898840;29;20056;-66
2021/10/27 05:40:09;;;;;;;17.20;7.35;;;;;;;;;;4896995;29;20121;-66
2021/10/27 05:42:39;;;;;;;9.13;7.63;;;;;;;;;;4881957;29;20555;-65
2021/10/27 05:45:07;;;;;;;10.05;7.00;;;;;;;;;;4893078;29;20045;-66
2021/10/27 05:47:35;;;;;;;9.20;7.72;;;;;;;;;;4880029;29;20093;-65
2021/10/27 05:58:09;;;;;;;10.65;7.32;;;;;;;;;;4866090;29;20056;-66
2021/10/27 06:00:37;;;;;;;9.30;6.90;;;;;;;;;;4892948;29;20056;-66
2021/10/27 06:03:03;;;;;;;8.13;7.07;;;;;;;;;;4898002;29;20061;-65
2021/10/27 06:05:30;;;;;;;9.35;7.50;;;;;;;;;;4898167;29;20100;-65
2021/10/27 06:07:58;;;;;;;9.90;7.70;;;;;;;;;;4898469;29;20466;-65
2021/10/27 06:10:25;;;;;;;10.45;7.53;;;;;;;;;;4898125;29;20202;-66
2021/10/27 06:12:57;;;;;;;10.63;7.75;;;;;;;;;;4897896;29;20056;-66
2021/10/27 06:15:24;;;;;;;7.43;5.87;;;;;;;;;;4881718;29;20052;-68
2021/10/27 06:17:51;;;;;;;9.55;7.20;;;;;;;;;;4896579;29;20060;-67
2021/10/27 06:20:18;;;;;;;9.93;7.60;;;;;;;;;;4896210;29;20555;-67
2021/10/27 06:22:45;;;;;;;10.23;7.13;;;;;;;;;;4896038;29;20052;-67
2021/10/27 06:25:12;;;;;;;8.35;7.18;;;;;;;;;;4879670;29;20158;-68
2021/10/27 06:27:42;;;;;;;9.93;7.78;;;;;;;;;;4895887;29;20465;-67
2021/10/27 06:30:19;;;;;;;11.82;9.27;;;;;;;;;;4879763;29;20056;-68
2021/10/27 06:35:23;;;;;;;12.20;9.27;;;;;;;;;;4879831;29;20112;-67
2021/10/27 06:48:34;;;;;;;11.20;7.97;;;;;;;;;;4895322;29;20108;-67
2021/10/27 06:51:08;;;;;;;10.70;7.80;;;;;;;;;;4892513;29;20052;-67
2021/10/27 06:53:35;;;;;;;10.32;8.27;;;;;;;;;;4891716;29;20100;-67
2021/10/27 06:56:07;;;;;;;11.68;9.05;;;;;;;;;;4895751;29;20079;-67
2021/10/27 06:58:42;;;;;;;9.73;7.90;;;;;;;;;;4894775;29;20508;-67
2021/10/27 07:01:13;;;;;;;11.60;8.32;;;;;;;;;;4894966;29;20091;-67
2021/10/27 07:04:03;;;;;;;10.23;8.80;;;;;;;;;;4894348;29;20168;-67
2021/10/27 07:17:15;;;;;;;13.43;10.10;;;;;;;;;;4894369;29;20109;-68
2021/10/27 07:19:41;;;;;;;15.57;10.88;;;;;;;;;;4895044;29;20064;-68
2021/10/27 07:22:13;;;;;;;15.02;11.27;;;;;;;;;;4894872;29;20108;-68
2021/10/27 07:24:43;;;;;;;16.38;12.60;;;;;;;;;;4894790;29;20057;-67
2021/10/27 07:27:10;;;;;;;14.95;11.93;;;;;;;;;;4896201;29;20457;-67
2021/10/27 07:29:41;;;;;;;16.02;12.70;;;;;;;;;;4896787;29;20108;-67
2021/10/27 07:32:09;;;;;;;18.55;12.23;;;;;;;;;;4896352;29;20504;-67
2021/10/27 07:34:39;;;;;;;15.65;12.20;;;;;;;;;;4896807;29;20061;-69
2021/10/27 07:42:19;;;;;;;16.63;13.32;;;;;;;;;;4887401;29;20620;-66
2021/10/27 07:44:48;;;;;;;19.45;13.40;;;;;;;;;;4885095;29;20064;-74
2021/10/27 07:47:16;;;;;;;32.58;18.77;;;;;;;;;;4887735;29;20084;-67
2021/10/27 07:49:43;;;;;;;23.77;17.25;;;;;;;;;;4885728;29;20065;-73
2021/10/27 07:52:10;;;;;;;26.90;19.05;;;;;;;;;;4883594;29;20048;-74
2021/10/27 07:54:37;;;;;;;26.88;17.67;;;;;;;;;;4886470;29;20056;-74
2021/10/27 07:57:03;;;;;;;19.30;14.13;;;;;;;;;;4885904;29;20052;-68
2021/10/27 07:59:31;;;;;;;15.50;12.20;;;;;;;;;;4882516;29;20490;-66
2021/10/27 08:02:00;;;;;;;14.10;11.77;;;;;;;;;;4884021;29;20041;-66
2021/10/27 08:04:27;;;;;;;13.70;9.70;;;;;;;;;;4881861;29;20501;-66
2021/10/27 08:06:54;;;;;;;13.23;10.15;;;;;;;;;;4889740;29;20057;-66
2021/10/27 08:09:20;;;;;;;12.85;10.13;;;;;;;;;;4882390;29;20180;-66
2021/10/27 08:11:48;;;;;;;13.20;9.77;;;;;;;;;;4883806;29;20079;-66
2021/10/27 08:14:15;;;;;;;10.95;9.02;;;;;;;;;;4881479;29;20473;-66
2021/10/27 08:16:42;;;;;;;12.77;9.55;;;;;;;;;;4888891;29;20465;-66
2021/10/27 08:19:09;;;;;;;15.15;9.88;;;;;;;;;;4886348;29;20056;-66
2021/10/27 08:21:35;;;;;;;9.43;8.43;;;;;;;;;;4888878;29;20458;-66
2021/10/27 08:24:02;;;;;;;11.98;8.73;;;;;;;;;;4886648;29;20049;-66
2021/10/27 08:26:32;;;;;;;10.75;9.15;;;;;;;;;;4887378;29;20060;-66
2021/10/27 08:29:00;;;;;;;12.43;9.00;;;;;;;;;;4887231;29;20048;-66
2021/10/27 08:36:27;;;;;;;10.48;9.38;;;;;;;;;;4887618;29;20648;-66
2021/10/27 08:38:54;;;;;;;12.60;9.18;;;;;;;;;;4889576;29;20063;-66
2021/10/27 08:41:40;;;;;;;12.68;8.90;;;;;;;;;;4890082;29;20057;-66
2021/10/27 08:44:07;;;;;;;10.88;8.57;;;;;;;;;;4885460;29;20049;-66
2021/10/27 08:46:34;;;;;;;11.93;9.73;;;;;;;;;;4887832;29;20056;-66
2021/10/27 08:49:03;;;;;;;10.75;9.07;;;;;;;;;;4885983;29;20057;-66
2021/10/27 08:51:30;;;;;;;12.65;9.82;;;;;;;;;;4886668;29;20048;-66
2021/10/27 08:53:57;;;;;;;11.73;9.35;;;;;;;;;;4885735;29;20052;-66
2021/10/27 08:56:25;;;;;;;12.85;9.55;;;;;;;;;;4890005;29;20052;-66
2021/10/27 08:58:59;;;;;;;11.15;8.82;;;;;;;;;;4887054;29;20060;-66
2021/10/27 09:07:13;;;;;;;10.52;8.85;;;;;;;;;;4889472;29;20112;-66
2021/10/27 10:06:26;;;;;;;9.05;6.43;;;;;;;;;;4879706;29;20448;-73
2021/10/27 10:08:53;;;;;;;8.75;6.18;;;;;;;;;;4878137;29;20060;-72
2021/10/27 10:11:21;;;;;;;10.32;6.30;;;;;;;;;;4876499;29;20056;-73
2021/10/27 10:13:50;;;;;;;7.03;5.85;;;;;;;;;;4892404;29;20464;-74
2021/10/27 10:16:16;;;;;;;8.13;6.03;;;;;;;;;;4888333;29;20056;-72
2021/10/27 10:18:43;;;;;;;7.32;6.18;;;;;;;;;;4890597;29;20061;-72
2021/10/27 10:21:11;;;;;;;8.13;6.40;;;;;;;;;;4888277;29;20504;-72
2021/10/27 10:23:38;;;;;;;7.05;5.90;;;;;;;;;;4884898;29;20104;-70
2021/10/27 10:26:09;;;;;;;9.63;6.20;;;;;;;;;;4885071;29;20072;-71
2021/10/27 10:28:39;;;;;;;11.27;6.20;;;;;;;;;;4884727;29;20065;-74
2021/10/27 10:31:07;;;;;;;8.65;5.75;;;;;;;;;;4894033;29;20048;-69
2021/10/27 10:33:46;;;;;;;8.88;6.40;;;;;;;;;;4883391;29;20052;-71
2021/10/27 10:36:24;;;;;;;7.88;5.55;;;;;;;;;;4885758;29;20461;-75
2021/10/27 10:41:56;;;;;;;7.40;5.47;;;;;;;;;;4883501;29;20135;-66
2021/10/27 10:45:40;;;;;;;7.13;5.82;;;;;;;;;;4885187;29;20425;-66
2021/10/27 11:26:29;;;;;;;5.88;4.78;;;;;;;;;;4896582;29;20111;-70
2021/10/27 11:40:13;;;;;;;7.15;4.70;;;;;;;;;;4893282;29;20081;-74
2021/10/27 11:42:54;;;;;;;5.63;4.68;;;;;;;;;;4905516;29;20056;-73
2021/10/27 11:48:33;;;;;;;6.53;3.50;;;;;;;;;;4886457;29;20056;-65
2021/10/27 11:50:54;;;;;;;4.22;3.83;;;;;;;;;;4885338;29;20124;-64
2021/10/27 11:53:29;;;;;;;7.85;3.47;;;;;;;;;;4886430;29;20501;-65
2021/10/27 11:56:14;;;;;;;4.35;3.08;;;;;;;;;;4889671;29;20432;-64
2021/10/27 11:58:45;;;;;;;3.92;2.58;;;;;;;;;;4908586;23;20402;-70
2021/10/27 12:01:20;;;;;;;6.17;2.20;;;;;;;;;;4912606;29;20048;-69
2021/10/27 12:03:47;;;;;;;4.32;2.78;;;;;;;;;;4914134;29;20052;-69
2021/10/27 12:06:29;;;;;;;3.58;2.60;;;;;;;;;;4905836;29;20056;-70
2021/10/27 12:11:51;;;;;;;4.72;2.50;;;;;;;;;;4912378;29;20087;-67
2021/10/27 12:17:26;;;;;;;3.05;1.92;;;;;;;;;;4896314;29;20052;-67
2021/10/27 12:19:53;;;;;;;3.95;2.10;;;;;;;;;;4898763;29;20052;-67
2021/10/27 12:22:22;;;;;;;2.45;1.83;;;;;;;;;;4891611;29;20052;-68
2021/10/27 12:24:54;;;;;;;2.65;2.35;;;;;;;;;;4907135;29;20115;-70
2021/10/27 12:27:33;;;;;;;;;;;;;;;;;;4908268;29;20056;-69
2021/10/27 12:30:03;;;;;;;3.72;2.03;;;;;;;;;;4913837;29;19927;-70
2021/10/27 12:32:29;;;;;;;3.40;2.38;;;;;;;;;;4915048;29;20052;-68
2021/10/27 12:35:08;;;;;;;5.25;1.55;;;;;;;;;;4910259;29;20064;-70
2021/10/27 12:37:38;;;;;;;2.00;1.25;;;;;;;;;;4911862;29;20751;-69
2021/10/27 12:40:23;;;;;;;2.85;1.30;;;;;;;;;;4910235;29;20048;-70
2021/10/27 12:43:07;;;;;;;1.40;1.27;;;;;;;;;;4912772;29;20115;-70
2021/10/27 12:45:40;;;;;;;2.75;1.25;;;;;;;;;;4913749;29;20099;-73
2021/10/27 12:48:10;;;;;;;4.38;1.42;;;;;;;;;;4896979;29;20060;-73
2021/10/27 12:50:54;;;;;;;3.50;1.50;;;;;;;;;;4913721;29;20056;-73
2021/10/27 12:53:34;;;;;;;1.55;1.10;;;;;;;;;;4896935;29;20056;-73
2021/10/27 12:56:04;;;;;;;2.10;1.60;;;;;;;;;;4896919;29;20044;-73
2021/10/27 12:58:31;;;;;;;5.22;1.40;;;;;;;;;;4910375;29;20059;-73
2021/10/27 13:11:52;;;;;;;2.45;0.90;;;;;;;;;;4916929;29;20048;-74
2021/10/27 13:33:03;;;;;;;1.85;1.40;;;;;;;;;;4916448;29;20511;-68
2021/10/27 13:35:34;;;;;;;1.02;0.85;;;;;;;;;;4914596;29;20150;-70
2021/10/27 13:38:04;;;;;;;2.13;0.80;;;;;;;;;;4916453;29;20063;-70
2021/10/27 13:40:34;;;;;;;1.63;1.10;;;;;;;;;;4899541;29;20051;-71
2021/10/27 13:43:07;;;;;;;2.35;1.00;;;;;;;;;;4913035;29;20059;-71
2021/10/27 13:48:27;;;;;;;1.92;0.90;;;;;;;;;;4916366;29;19927;-71
2021/10/27 14:07:49;;;;;;;2.05;0.73;;;;;;;;;;4916519;29;20052;-75
2021/10/27 14:10:46;;;;;;;1.38;0.80;;;;;;;;;;4916402;29;20113;-71
2021/10/27 14:13:22;;;;;;;2.40;1.02;;;;;;;;;;4914919;29;20066;-73
2021/10/27 14:41:22;;;;;;;1.38;0.90;;;;;;;;;;4914330;29;20087;-70
2021/10/27 15:20:12;;;;;;;1.17;0.90;;;;;;;;;;4900052;29;20060;-74
2021/10/27 15:28:38;;;;;;;1.95;0.88;;;;;;;;;;4913131;29;20062;-76
2021/10/27 15:41:29;;;;;;;1.85;1.08;;;;;;;;;;4913508;29;20048;-74
2021/10/27 15:52:08;;;;;;;3.50;1.70;;;;;;;;;;4913118;29;20048;-69
2021/10/27 15:54:35;;;;;;;2.42;1.45;;;;;;;;;;4913851;29;20471;-69
2021/10/27 15:57:02;;;;;;;2.97;1.77;;;;;;;;;;4914158;29;20056;-72
2021/10/27 15:59:29;;;;;;;3.58;2.08;;;;;;;;;;4896595;29;20052;-71
2021/10/27 16:01:56;;;;;;;4.18;2.63;;;;;;;;;;4913468;29;20139;-70
2021/10/27 16:04:23;;;;;;;3.55;2.20;;;;;;;;;;4913473;29;20415;-73
2021/10/27 16:06:51;;;;;;;4.05;1.70;;;;;;;;;;4913969;29;20063;-72
2021/10/27 16:09:19;;;;;;;2.33;1.92;;;;;;;;;;4912128;29;20466;-72
2021/10/27 16:11:46;;;;;;;3.58;1.60;;;;;;;;;;4914290;29;20099;-73
2021/10/27 16:14:13;;;;;;;3.63;1.73;;;;;;;;;;4899087;29;20104;-76
2021/10/27 16:16:40;;;;;;;3.67;2.00;;;;;;;;;;4897807;29;20355;-73
2021/10/27 16:19:19;;;;;;;4.63;1.70;;;;;;;;;;4914067;29;20055;-72
2021/10/27 16:22:04;;;;;;;1.92;1.48;;;;;;;;;;4899176;29;20053;-72
2021/10/27 16:24:31;;;;;;;5.55;2.00;;;;;;;;;;4913873;29;20079;-74
2021/10/27 16:26:58;;;;;;;3.92;1.98;;;;;;;;;;4896708;29;20056;-72
2021/10/27 16:29:25;;;;;;;4.00;2.40;;;;;;;;;;4913725;29;20052;-72
2021/10/27 16:31:52;;;;;;;3.88;3.05;;;;;;;;;;4913732;29;20095;-70
2021/10/27 16:34:18;;;;;;;4.47;3.33;;;;;;;;;;4898802;29;20048;-70
2021/10/27 16:36:47;;;;;;;3.55;3.05;;;;;;;;;;4914421;29;20056;-71
2021/10/27 16:39:13;;;;;;;12.63;7.75;;;;;;;;;;4918376;29;20112;-69
2021/10/27 16:41:40;;;;;;;17.17;11.65;;;;;;;;;;4890570;29;20074;-71
2021/10/27 16:44:07;;;;;;;13.88;11.20;;;;;;;;;;4917064;29;20107;-73
2021/10/27 16:46:34;;;;;;;13.60;9.80;;;;;;;;;;4917270;29;20048;-72
2021/10/27 16:49:01;;;;;;;11.35;8.38;;;;;;;;;;4915866;29;20052;-70
2021/10/27 16:51:28;;;;;;;13.20;9.20;;;;;;;;;;4916556;29;20495;-71
2021/10/27 16:54:00;;;;;;;12.32;8.40;;;;;;;;;;4916781;29;20048;-73
2021/10/27 16:56:29;;;;;;;7.50;5.45;;;;;;;;;;4895788;29;20044;-68
2021/10/27 16:58:55;;;;;;;12.00;6.88;;;;;;;;;;4914850;29;20091;-68
2021/10/27 17:01:23;;;;;;;11.93;7.10;;;;;;;;;;4914546;29;20104;-68
2021/10/27 17:03:50;;;;;;;15.23;7.60;;;;;;;;;;4913017;29;20052;-68
2021/10/27 17:06:17;;;;;;;13.15;7.93;;;;;;;;;;4914465;29;20052;-68
2021/10/27 17:08:44;;;;;;;12.38;6.85;;;;;;;;;;4914046;29;20526;-67
2021/10/27 17:11:23;;;;;;;12.52;6.80;;;;;;;;;;4914146;29;20139;-68
2021/10/27 17:13:49;;;;;;;11.65;6.68;;;;;;;;;;4914687;29;20060;-68
2021/10/27 17:16:16;;;;;;;12.48;6.35;;;;;;;;;;4913764;29;20071;-68
2021/10/27 17:18:43;;;;;;;14.00;7.70;;;;;;;;;;4914489;29;20052;-68
2021/10/27 17:21:10;;;;;;;21.23;9.77;;;;;;;;;;4914603;29;20044;-69
2021/10/27 17:23:41;;;;;;;13.98;7.70;;;;;;;;;;4913535;29;20056;-69
2021/10/27 17:26:08;;;;;;;17.58;9.63;;;;;;;;;;4912108;29;20048;-69
2021/10/27 17:28:34;;;;;;;14.15;8.63;;;;;;;;;;4913726;29;20060;-68
2021/10/27 17:31:03;;;;;;;15.80;8.07;;;;;;;;;;4914897;29;20079;-69
2021/10/27 17:33:30;;;;;;;14.25;7.13;;;;;;;;;;4913963;29;20070;-69
2021/10/27 17:36:29;;;;;;;11.23;6.28;;;;;;;;;;4914296;29;20075;-71
2021/10/27 17:39:00;;;;;;;18.50;7.22;;;;;;;;;;4898490;29;20464;-71
2021/10/27 17:41:28;;;;;;;15.38;6.00;;;;;;;;;;4882631;29;20055;-68
2021/10/27 17:43:55;;;;;;;8.82;5.10;;;;;;;;;;4914537;29;20056;-70
2021/10/27 17:46:25;;;;;;;10.30;6.45;;;;;;;;;;4882777;29;20048;-70
2021/10/27 17:48:58;;;;;;;8.35;5.13;;;;;;;;;;4913279;29;20075;-70
2021/10/27 17:51:27;;;;;;;9.13;5.10;;;;;;;;;;4898453;29;20475;-71
2021/10/27 17:59:24;;;;;;;7.95;4.60;;;;;;;;;;4912648;29;20554;-70
2021/10/27 18:01:50;;;;;;;6.72;4.43;;;;;;;;;;4913395;29;20056;-69
2021/10/27 18:04:18;;;;;;;7.45;4.80;;;;;;;;;;4913449;29;20044;-67
2021/10/27 18:06:45;;;;;;;7.00;4.72;;;;;;;;;;4897001;29;20107;-67
2021/10/27 18:09:14;;;;;;;7.63;4.55;;;;;;;;;;5054477;23;20051;-70
2021/10/27 18:11:44;;;;;;;7.18;5.13;;;;;;;;;;4918982;29;20056;-69
2021/10/27 18:14:15;;;;;;;13.48;7.50;;;;;;;;;;4922917;29;20111;-68
2021/10/27 18:16:57;;;;;;;16.73;10.68;;;;;;;;;;4918669;29;20056;-70
2021/10/27 18:22:22;;;;;;;14.55;7.05;;;;;;;;;;4904829;29;20351;-69
2021/10/27 18:43:44;;;;;;;10.87;5.73;;;;;;;;;;4903072;29;20091;-69
2021/10/27 18:46:11;;;;;;;13.88;6.47;;;;;;;;;;4902128;29;20052;-69
2021/10/27 18:48:41;;;;;;;18.88;7.15;;;;;;;;;;4900554;29;20060;-69
2021/10/27 18:51:15;;;;;;;13.55;6.97;;;;;;;;;;4901838;29;20119;-68
2021/10/27 18:54:18;;;;;;;11.57;7.70;;;;;;;;;;4904592;29;20053;-69
2021/10/27 18:59:41;;;;;;;13.85;7.75;;;;;;;;;;4900411;29;20127;-69
2021/10/27 19:02:19;;;;;;;10.85;7.05;;;;;;;;;;4902268;29;20052;-69
2021/10/27 19:13:11;;;;;;;12.75;8.75;;;;;;;;;;4895575;29;20134;-69
2021/10/27 19:15:41;;;;;;;14.00;8.30;;;;;;;;;;4899379;29;20052;-70
2021/10/27 19:18:08;;;;;;;12.25;7.65;;;;;;;;;;4905596;29;20082;-69
2021/10/27 19:20:35;;;;;;;14.75;7.90;;;;;;;;;;4901269;29;20056;-69
2021/10/27 19:23:02;;;;;;;13.80;8.57;;;;;;;;;;4901393;29;20052;-70
2021/10/27 19:25:42;;;;;;;13.35;8.73;;;;;;;;;;4900058;29;20397;-69
2021/10/27 19:28:14;;;;;;;13.32;7.97;;;;;;;;;;4905198;29;20201;-69
2021/10/27 20:11:43;;;;;;;15.40;9.23;;;;;;;;;;4879381;29;20105;-67
2021/10/27 20:53:00;;;;;;;12.25;9.68;;;;;;;;;;4880817;29;20060;-67
2021/10/27 20:55:30;;;;;;;18.73;11.07;;;;;;;;;;4867461;29;20397;-67
2021/10/27 21:00:47;;;;;;;19.23;11.52;;;;;;;;;;4879800;29;20044;-67
2021/10/27 21:14:34;;;;;;;18.65;10.63;;;;;;;;;;4866438;29;20053;-68
2021/10/27 21:17:00;;;;;;;17.42;11.57;;;;;;;;;;4879187;29;20052;-68
2021/10/27 21:19:27;;;;;;;19.05;11.10;;;;;;;;;;4864152;29;20125;-67
2021/10/27 21:21:54;;;;;;;14.85;10.85;;;;;;;;;;4863624;29;20049;-67
2021/10/27 21:24:20;;;;;;;14.75;10.90;;;;;;;;;;4864461;29;20084;-67
2021/10/27 21:26:48;;;;;;;19.05;10.60;;;;;;;;;;4875988;29;20049;-67
2021/10/27 21:29:20;;;;;;;14.93;10.23;;;;;;;;;;4861843;29;20049;-67
2021/10/27 21:42:49;;;;;;;21.13;10.88;;;;;;;;;;4873477;29;20057;-67
2021/10/27 21:45:16;;;;;;;22.67;13.13;;;;;;;;;;4875608;29;20474;-67
2021/10/27 21:47:43;;;;;;;20.55;12.23;;;;;;;;;;4878792;29;20450;-68
2021/10/27 21:50:15;;;;;;;20.10;11.73;;;;;;;;;;4863462;29;20052;-68
2021/10/27 21:52:47;;;;;;;20.88;13.55;;;;;;;;;;4848520;29;20085;-68
2021/10/27 21:55:25;;;;;;;25.25;12.60;;;;;;;;;;4848477;29;20582;-67
2021/10/27 21:57:52;;;;;;;20.23;12.25;;;;;;;;;;4850961;29;20112;-67
2021/10/27 22:00:49;;;;;;;21.98;12.25;;;;;;;;;;4832888;29;20427;-67
2021/10/27 22:03:18;;;;;;;21.98;12.38;;;;;;;;;;4879544;29;20060;-67
2021/10/27 22:05:44;;;;;;;20.88;12.50;;;;;;;;;;4878636;29;20049;-68
2021/10/27 22:08:11;;;;;;;18.98;12.32;;;;;;;;;;4863112;29;20056;-67
2021/10/27 22:10:37;;;;;;;16.77;10.60;;;;;;;;;;4879296;29;20057;-67
2021/10/27 22:13:05;;;;;;;16.92;10.77;;;;;;;;;;4879832;29;20508;-67